Time;durP1;ratioP1;P1;durP2;ratioP2;P2;SDS_P1;SDS_P2;PMS_P1;PMS_P2;Temp;Humidity;BMP_temperature;BMP_pressure;BME280_temperature;BME280_humidity;BME280_pressure;Samples;Min_cycle;Max_cycle;Signal;HPM_P1;HPM_P2
2021/12/15 08:49:21;;;;;;;34.65;15.10;;;;;;;4.38;100.00;100634.47;5131422;27;20387;-81
2021/12/15 08:51:48;;;;;;;41.45;15.93;;;;;;;4.42;100.00;100607.22;5131006;28;20036;-81
2021/12/15 08:54:18;;;;;;;40.03;17.67;;;;;;;4.54;100.00;100613.56;5129861;27;20055;-81
2021/12/15 08:56:46;;;;;;;36.55;16.15;;;;;;;4.67;100.00;100629.69;5121882;28;20085;-81
2021/12/15 08:59:14;;;;;;;43.03;16.02;;;;;;;4.63;100.00;100617.41;5128113;28;20047;-81
2021/12/15 09:01:42;;;;;;;33.53;15.77;;;;;;;4.71;100.00;100619.56;5129384;28;20498;-81
2021/12/15 09:04:10;;;;;;;33.75;14.82;;;;;;;4.81;100.00;100619.75;5129066;28;20092;-81
2021/12/15 09:06:39;;;;;;;34.97;14.98;;;;;;;4.87;100.00;100628.25;5129618;28;20051;-81
2021/12/15 09:09:08;;;;;;;31.60;14.90;;;;;;;4.90;100.00;100627.16;5130209;28;20047;-81
2021/12/15 09:12:10;;;;;;;28.88;14.73;;;;;;;4.96;100.00;100622.16;5129394;28;20043;-82
2021/12/15 09:14:37;;;;;;;27.85;13.90;;;;;;;4.95;100.00;100615.06;5129636;27;20059;-81
2021/12/15 09:17:05;;;;;;;26.85;12.52;;;;;;;5.06;100.00;100632.25;5126591;28;20043;-81
2021/12/15 09:19:32;;;;;;;29.65;13.07;;;;;;;5.17;100.00;100631.50;5129421;28;20347;-81
2021/12/15 09:22:00;;;;;;;34.00;14.13;;;;;;;5.15;100.00;100634.31;5127695;27;20043;-80
2021/12/15 09:24:27;;;;;;;32.75;14.43;;;;;;;5.11;100.00;100622.88;5129341;28;20124;-81
2021/12/15 09:26:55;;;;;;;27.92;12.85;;;;;;;5.24;100.00;100633.63;5129394;28;20051;-81
2021/12/15 09:29:22;;;;;;;26.38;12.82;;;;;;;5.27;100.00;100637.94;5119772;27;20134;-81
2021/12/15 09:31:49;;;;;;;26.10;13.65;;;;;;;5.30;100.00;100629.59;5108979;28;20047;-81
2021/12/15 09:34:18;;;;;;;26.90;13.50;;;;;;;5.38;100.00;100643.38;5109033;28;20044;-81
2021/12/15 09:36:46;;;;;;;26.20;12.85;;;;;;;5.39;100.00;100645.09;5107617;28;20054;-80
2021/12/15 09:39:16;;;;;;;25.02;12.85;;;;;;;5.49;100.00;100642.56;5107388;28;20185;-80
2021/12/15 09:41:44;;;;;;;22.90;12.30;;;;;;;5.60;100.00;100631.81;5102511;28;20131;-81
2021/12/15 09:44:14;;;;;;;22.80;11.35;;;;;;;5.55;100.00;100633.13;5103695;28;20048;-80
2021/12/15 10:03:31;;;;;;;22.08;10.95;;;;;;;5.51;100.00;100646.00;5090000;28;20059;-81
2021/12/15 10:06:05;;;;;;;19.02;10.07;;;;;;;5.46;100.00;100640.94;5094810;28;20056;-81
2021/12/15 10:19:52;;;;;;;19.23;9.65;;;;;;;5.66;100.00;100642.13;5031699;28;20044;-80
2021/12/15 10:22:30;;;;;;;17.52;9.52;;;;;;;5.53;100.00;100621.63;5080068;28;20400;-80
2021/12/15 10:24:59;;;;;;;17.45;9.52;;;;;;;5.68;100.00;100640.16;5094626;28;20059;-80
2021/12/15 10:27:38;;;;;;;21.52;10.95;;;;;;;5.56;100.00;100633.03;5092835;28;20055;-80
2021/12/15 10:30:21;;;;;;;17.67;9.63;;;;;;;5.60;100.00;100634.50;5094223;28;20055;-80
2021/12/15 10:32:51;;;;;;;17.52;9.57;;;;;;;5.55;100.00;100625.91;5092593;28;20131;-80
2021/12/15 10:35:21;;;;;;;15.93;9.10;;;;;;;5.54;100.00;100613.41;5093849;28;20391;-80
2021/12/15 10:38:10;;;;;;;19.08;9.80;;;;;;;5.67;100.00;100629.50;5094111;28;20055;-81
2021/12/15 10:40:42;;;;;;;16.63;9.40;;;;;;;5.72;100.00;100631.84;5087616;28;20048;-81
2021/12/15 10:43:10;;;;;;;15.93;9.13;;;;;;;5.62;100.00;100619.06;5093455;28;20048;-80
2021/12/15 10:45:40;;;;;;;19.17;8.80;;;;;;;5.62;100.00;100629.00;5092519;28;20380;-80
2021/12/15 10:48:14;;;;;;;15.93;9.38;;;;;;;5.71;100.00;100622.06;5089641;28;20051;-80
2021/12/15 10:50:42;;;;;;;17.02;9.18;;;;;;;5.66;100.00;100620.56;5093600;28;20052;-81
2021/12/15 10:53:09;;;;;;;14.73;8.02;;;;;;;5.62;100.00;100605.56;5093867;28;20044;-80
2021/12/15 10:55:39;;;;;;;14.13;8.70;;;;;;;5.70;100.00;100631.97;5093511;28;20453;-80
2021/12/15 10:58:38;;;;;;;15.23;8.63;;;;;;;5.64;100.00;100622.50;5093643;28;20048;-80
2021/12/15 11:01:27;;;;;;;14.43;7.25;;;;;;;5.65;100.00;100612.59;5092412;28;20065;-80
2021/12/15 11:03:54;;;;;;;15.50;8.43;;;;;;;5.76;100.00;100607.19;5087559;28;20056;-81
2021/12/15 11:06:27;;;;;;;15.05;8.70;;;;;;;5.76;100.00;100611.75;5093443;28;20495;-80
2021/12/15 11:09:16;;;;;;;13.55;7.43;;;;;;;5.85;100.00;100609.19;5092634;28;20703;-80
2021/12/15 11:11:58;;;;;;;15.77;8.43;;;;;;;5.83;100.00;100623.78;5092055;28;20071;-81
2021/12/15 11:14:30;;;;;;;15.93;8.40;;;;;;;5.82;100.00;100616.66;5093274;28;20077;-81
2021/12/15 11:17:20;;;;;;;13.50;7.43;;;;;;;5.82;100.00;100616.66;5091935;28;20048;-80
2021/12/15 11:19:54;;;;;;;16.15;9.05;;;;;;;5.79;100.00;100625.00;5087147;28;20047;-80
2021/12/15 11:22:49;;;;;;;18.77;8.77;;;;;;;5.79;100.00;100620.44;5092362;28;20055;-80
2021/12/15 11:25:35;;;;;;;13.02;7.65;;;;;;;5.81;100.00;100613.13;5085876;28;20551;-80
2021/12/15 11:28:06;;;;;;;14.20;7.88;;;;;;;5.94;100.00;100620.25;5093058;28;20044;-81
2021/12/15 11:30:40;;;;;;;15.98;8.38;;;;;;;5.97;100.00;100610.09;5092847;28;20109;-80
2021/12/15 11:33:10;;;;;;;16.02;7.85;;;;;;;5.92;100.00;100600.63;5093059;28;20051;-80
2021/12/15 11:35:41;;;;;;;12.98;7.70;;;;;;;5.87;100.00;100600.97;5092923;28;20044;-80
2021/12/15 11:38:13;;;;;;;15.55;7.47;;;;;;;5.84;100.00;100596.69;5090890;28;20395;-80
2021/12/15 11:40:47;;;;;;;15.48;7.45;;;;;;;5.84;100.00;100603.91;5092500;28;20040;-80
2021/12/15 11:43:30;;;;;;;15.82;8.40;;;;;;;5.84;100.00;100596.69;5092317;28;20135;-80
2021/12/15 11:45:59;;;;;;;25.20;9.23;;;;;;;5.85;100.00;100579.50;5093056;28;20058;-80
2021/12/15 11:48:28;;;;;;;14.50;8.02;;;;;;;6.01;100.00;100592.69;5092575;28;20051;-80
2021/12/15 11:50:59;;;;;;;13.05;7.68;;;;;;;5.98;100.00;100584.84;5092487;28;20089;-80
2021/12/15 11:53:38;;;;;;;12.23;8.23;;;;;;;5.82;100.00;100568.09;5090805;28;20044;-81
2021/12/15 11:56:14;;;;;;;12.98;7.75;;;;;;;5.90;100.00;100592.66;5088470;28;20537;-81
2021/12/15 11:58:42;;;;;;;11.93;7.15;;;;;;;5.96;100.00;100594.00;5092533;28;20048;-80
2021/12/15 12:01:11;;;;;;;14.32;6.88;;;;;;;5.87;100.00;100586.63;5092294;28;20059;-80
2021/12/15 12:03:38;;;;;;;8.57;5.78;;;;;;;5.87;100.00;100590.16;5091721;28;20052;-80
2021/12/15 12:06:05;;;;;;;15.27;5.72;;;;;;;5.82;100.00;100584.28;5092613;28;20052;-80
2021/12/15 12:08:31;;;;;;;10.45;6.03;;;;;;;5.84;100.00;100585.88;5092159;28;20487;-80
2021/12/15 12:11:05;;;;;;;9.70;5.82;;;;;;;6.00;100.00;100579.31;5090915;28;20110;-80
2021/12/15 12:13:38;;;;;;;10.38;5.90;;;;;;;5.99;100.00;100575.78;5092567;28;20063;-80
2021/12/15 12:16:09;;;;;;;13.18;6.57;;;;;;;5.99;100.00;100578.47;5092550;28;20051;-81
2021/12/15 12:18:40;;;;;;;9.25;6.70;;;;;;;5.85;100.00;100559.75;5092821;28;20044;-81
2021/12/15 12:21:10;;;;;;;11.10;6.72;;;;;;;5.85;100.00;100559.75;5092253;28;20040;-81
2021/12/15 12:23:37;;;;;;;;;;;;;;;5.91;100.00;100578.16;5092481;28;20480;-80
2021/12/15 12:26:09;;;;;;;12.93;6.60;;;;;;;5.90;100.00;100571.06;5092120;28;19924;-81
2021/12/15 12:28:39;;;;;;;15.18;6.30;;;;;;;5.86;100.00;100572.28;5084006;28;20040;-80
2021/12/15 12:31:12;;;;;;;12.30;6.70;;;;;;;5.93;100.00;100575.34;5091754;28;20042;-80
2021/12/15 12:33:41;;;;;;;12.43;7.78;;;;;;;5.94;100.00;100572.53;5091866;28;20044;-81
2021/12/15 12:36:10;;;;;;;10.25;6.30;;;;;;;5.89;100.00;100561.25;5091633;28;20475;-81
2021/12/15 12:38:40;;;;;;;13.82;7.00;;;;;;;5.91;100.00;100569.22;5091759;28;20040;-80
2021/12/15 12:41:11;;;;;;;10.63;6.15;;;;;;;6.01;100.00;100565.69;5091421;28;20052;-78
2021/12/15 12:43:41;;;;;;;11.93;5.97;;;;;;;5.98;100.00;100554.28;5092078;28;20047;-78
2021/12/15 12:46:15;;;;;;;13.13;7.03;;;;;;;5.97;100.00;100558.81;5088579;28;20044;-78
2021/12/15 12:49:22;;;;;;;11.95;6.75;;;;;;;6.07;100.00;100561.66;5087787;28;20051;-77
2021/12/15 13:00:10;;;;;;;10.45;6.35;;;;;;;6.04;100.00;100553.81;5091847;28;20539;-77
2021/12/15 13:02:44;;;;;;;8.68;5.30;;;;;;;6.05;100.00;100566.28;5084637;28;20051;-77
2021/12/15 13:05:43;;;;;;;7.30;5.13;;;;;;;6.04;100.00;100559.19;5082186;28;20047;-78
2021/12/15 13:08:14;;;;;;;9.33;6.37;;;;;;;6.05;100.00;100558.19;5091424;28;20048;-78
2021/12/15 13:10:59;;;;;;;8.40;5.57;;;;;;;6.05;100.00;100541.16;5091426;28;20048;-78
2021/12/15 13:13:28;;;;;;;9.70;5.45;;;;;;;6.17;100.00;100542.88;5087941;28;20051;-78
2021/12/15 13:15:59;;;;;;;9.52;6.10;;;;;;;6.23;100.00;100545.06;5091865;28;20055;-78
2021/12/15 13:18:28;;;;;;;7.82;5.28;;;;;;;6.24;100.00;100554.06;5091671;28;20829;-78
2021/12/15 13:21:00;;;;;;;9.45;5.97;;;;;;;6.14;100.00;100540.41;5089938;28;20079;-78
2021/12/15 13:23:45;;;;;;;8.52;4.78;;;;;;;5.89;100.00;100542.34;5083936;28;20086;-78
2021/12/15 13:29:20;;;;;;;8.18;3.90;;;;;;;5.78;100.00;100539.63;5091588;28;20189;-78
2021/12/15 13:31:56;;;;;;;7.70;5.13;;;;;;;5.74;100.00;100540.84;5086360;28;20109;-78
2021/12/15 13:34:42;;;;;;;10.18;4.93;;;;;;;5.61;100.00;100530.16;5092383;28;20114;-77
2021/12/15 13:37:09;;;;;;;7.97;4.97;;;;;;;5.72;100.00;100540.09;5095447;28;20052;-77
2021/12/15 13:39:50;;;;;;;9.90;5.95;;;;;;;5.68;100.00;100532.25;5095263;28;20199;-78
2021/12/15 13:42:41;;;;;;;9.10;5.90;;;;;;;5.71;100.00;100541.09;5087973;28;20053;-77
2021/12/15 13:45:27;;;;;;;7.00;4.82;;;;;;;5.74;100.00;100532.75;5091761;28;20071;-78
2021/12/15 13:47:55;;;;;;;9.75;4.97;;;;;;;5.81;100.00;100542.94;5085372;28;20075;-78
2021/12/15 13:50:25;;;;;;;7.20;4.97;;;;;;;5.72;100.00;100545.50;5094616;28;20583;-77
2021/12/15 13:52:56;;;;;;;8.30;4.75;;;;;;;5.75;100.00;100543.44;5094953;28;20520;-78
2021/12/15 13:55:28;;;;;;;9.63;5.45;;;;;;;5.67;100.00;100543.16;5094936;28;20113;-77
2021/12/15 13:58:13;;;;;;;6.25;4.03;;;;;;;5.65;100.00;100537.03;5093352;28;20052;-78
2021/12/15 14:00:46;;;;;;;7.07;4.57;;;;;;;5.62;100.00;100543.50;5093156;28;20505;-78
2021/12/15 14:03:17;;;;;;;8.70;4.53;;;;;;;5.65;100.00;100543.28;5094399;28;20483;-78
2021/12/15 14:05:48;;;;;;;18.02;5.63;;;;;;;5.59;100.00;100546.47;5094897;28;20051;-78
2021/12/15 14:08:18;;;;;;;7.22;4.85;;;;;;;5.65;100.00;100556.78;5094688;28;20112;-77
2021/12/15 14:11:03;;;;;;;8.55;4.55;;;;;;;5.62;100.00;100551.63;5094091;28;20093;-78
2021/12/15 14:13:49;;;;;;;7.95;5.10;;;;;;;5.67;100.00;100556.66;5089796;28;20049;-77
2021/12/15 14:16:39;;;;;;;7.38;5.05;;;;;;;5.64;100.00;100570.38;5091309;28;20040;-78
2021/12/15 14:19:07;;;;;;;;;;;;;;;5.64;100.00;100575.78;5087473;28;20495;-78
2021/12/15 14:21:36;;;;;;;8.43;4.55;;;;;;;5.57;100.00;100577.22;5094122;28;19924;-78
2021/12/15 14:24:04;;;;;;;7.05;5.07;;;;;;;5.47;100.00;100572.53;5126406;27;20052;-77
2021/12/15 14:26:34;;;;;;;6.93;4.63;;;;;;;5.54;100.00;100581.03;5094117;28;20044;-78
2021/12/15 14:29:05;;;;;;;7.97;5.43;;;;;;;5.46;100.00;100576.19;5092515;28;20052;-78
2021/12/15 14:31:34;;;;;;;7.97;4.97;;;;;;;5.39;100.00;100574.09;5086142;28;20048;-78
2021/12/15 14:34:05;;;;;;;9.25;5.13;;;;;;;5.46;100.00;100576.19;5093659;28;20419;-78
2021/12/15 14:36:34;;;;;;;5.70;3.95;;;;;;;5.50;100.00;100580.38;5094468;28;20050;-78
2021/12/15 14:39:05;;;;;;;5.63;3.97;;;;;;;5.50;100.00;100584.94;5094034;28;20052;-77
2021/12/15 14:41:36;;;;;;;4.93;3.85;;;;;;;5.48;100.00;100579.66;5093362;28;20040;-78
2021/12/15 14:44:09;;;;;;;11.43;4.10;;;;;;;5.48;100.00;100581.50;5082566;28;20083;-78
2021/12/15 14:46:38;;;;;;;5.30;3.97;;;;;;;5.50;100.00;100590.34;5082502;28;20055;-78
2021/12/15 14:49:10;;;;;;;4.82;3.15;;;;;;;5.38;100.00;100584.03;5092351;28;20506;-78
2021/12/15 14:51:39;;;;;;;5.22;3.83;;;;;;;5.46;100.00;100578.03;5092803;28;20097;-78
2021/12/15 14:54:07;;;;;;;5.35;3.85;;;;;;;5.37;100.00;100589.53;5091823;28;20289;-78
2021/12/15 14:56:52;;;;;;;5.95;4.03;;;;;;;5.32;100.00;100584.50;5086796;28;20051;-78
2021/12/15 14:59:24;;;;;;;5.68;3.63;;;;;;;5.29;100.00;100582.88;5081373;28;20048;-78
2021/12/15 15:01:53;;;;;;;5.07;3.63;;;;;;;5.11;100.00;100563.56;5092838;28;20036;-78
2021/12/15 15:04:21;;;;;;;6.43;4.05;;;;;;;5.20;100.00;100586.28;5082992;28;20108;-77
2021/12/15 15:06:48;;;;;;;6.32;4.18;;;;;;;5.21;100.00;100588.00;5093528;28;20044;-78
2021/12/15 15:09:23;;;;;;;7.60;3.97;;;;;;;5.25;100.00;100591.31;5091656;28;20144;-77
2021/12/15 15:11:56;;;;;;;6.95;4.13;;;;;;;5.25;100.00;100591.31;5086195;28;20407;-77
2021/12/15 15:14:28;;;;;;;6.05;4.10;;;;;;;5.17;100.00;100591.91;5090890;28;20575;-78
2021/12/15 15:16:55;;;;;;;7.45;4.38;;;;;;;5.21;100.00;100597.91;5083526;28;20068;-78
2021/12/15 15:19:22;;;;;;;9.82;4.25;;;;;;;5.12;100.00;100600.34;5084406;28;20048;-77
2021/12/15 15:21:49;;;;;;;6.60;4.20;;;;;;;5.04;100.00;100600.03;5092158;28;20163;-77
2021/12/15 15:24:31;;;;;;;4.82;3.42;;;;;;;4.99;100.00;100596.00;5092799;28;20406;-77
2021/12/15 15:27:02;;;;;;;5.95;4.15;;;;;;;4.99;100.00;100604.06;5092976;28;20052;-78
2021/12/15 15:29:38;;;;;;;5.80;4.40;;;;;;;4.96;100.00;100606.00;5091974;28;20121;-78
2021/12/15 15:32:12;;;;;;;6.28;4.45;;;;;;;4.99;100.00;100604.91;5090414;28;20083;-78
2021/12/15 15:34:40;;;;;;;5.47;4.18;;;;;;;5.01;100.00;100600.25;5092671;28;20093;-77
2021/12/15 15:37:15;;;;;;;5.88;4.38;;;;;;;4.96;100.00;100600.59;5085444;28;20462;-77
2021/12/15 15:39:43;;;;;;;5.78;4.30;;;;;;;5.01;100.00;100594.03;5084314;28;20044;-78
2021/12/15 15:42:20;;;;;;;10.52;4.60;;;;;;;4.99;100.00;100599.53;5091905;28;20048;-78
2021/12/15 15:44:47;;;;;;;7.38;4.82;;;;;;;4.92;100.00;100595.56;5085029;28;20119;-78
2021/12/15 15:47:20;;;;;;;5.88;4.22;;;;;;;5.04;100.00;100608.13;5090325;28;20097;-78
2021/12/15 15:49:56;;;;;;;4.82;4.20;;;;;;;5.04;100.00;100604.56;5082829;28;20646;-78
2021/12/15 15:52:23;;;;;;;7.90;5.07;;;;;;;5.07;100.00;100596.25;5090966;28;20101;-78
2021/12/15 15:54:52;;;;;;;7.75;4.38;;;;;;;4.93;100.00;100599.97;5087228;28;20044;-78
2021/12/15 15:57:23;;;;;;;6.28;4.82;;;;;;;4.93;100.00;100613.47;5091394;28;20100;-78
2021/12/15 15:59:51;;;;;;;7.22;4.65;;;;;;;4.95;100.00;100614.19;5084028;28;20128;-78
2021/12/15 16:02:19;;;;;;;6.95;4.90;;;;;;;4.98;100.00;100611.28;5091738;28;20541;-78
2021/12/15 16:04:46;;;;;;;9.30;5.07;;;;;;;5.00;100.00;100608.47;5091698;28;20052;-77
2021/12/15 16:07:17;;;;;;;5.20;4.25;;;;;;;4.97;100.00;100614.97;5086813;28;20054;-77
2021/12/15 16:09:46;;;;;;;7.22;4.95;;;;;;;4.92;100.00;100623.41;5088531;28;20041;-77
2021/12/15 16:12:15;;;;;;;6.90;5.05;;;;;;;4.97;100.00;100623.91;5091751;28;20052;-78
2021/12/15 16:14:48;;;;;;;6.57;4.60;;;;;;;5.08;100.00;100635.72;5091309;28;20044;-78
2021/12/15 16:17:25;;;;;;;6.63;4.68;;;;;;;5.14;100.00;100619.09;5092320;28;20126;-77
2021/12/15 16:20:13;;;;;;;6.53;4.93;;;;;;;5.04;100.00;100623.44;5091791;28;20051;-78
2021/12/15 16:23:01;;;;;;;6.32;4.75;;;;;;;4.96;100.00;100632.94;5088840;28;20076;-77
2021/12/15 16:25:31;;;;;;;6.18;4.68;;;;;;;4.89;100.00;100625.44;5087580;28;20419;-77
2021/12/15 16:28:06;;;;;;;8.85;4.88;;;;;;;4.85;100.00;100632.88;5091322;28;20062;-77
2021/12/15 16:30:38;;;;;;;7.93;4.90;;;;;;;4.86;100.00;100637.28;5091343;28;20079;-77
2021/12/15 16:33:07;;;;;;;7.30;5.47;;;;;;;4.86;100.00;100631.91;5083497;28;20050;-77
2021/12/15 16:35:37;;;;;;;9.35;5.78;;;;;;;4.82;100.00;100641.19;5091538;28;20044;-78
2021/12/15 16:38:22;;;;;;;8.10;6.25;;;;;;;4.82;100.00;100638.50;5091521;28;20043;-77
2021/12/15 16:40:58;;;;;;;8.73;5.95;;;;;;;4.90;100.00;100643.34;5083995;28;20046;-78
2021/12/15 16:43:25;;;;;;;8.07;5.53;;;;;;;5.01;100.00;100645.22;5090761;28;20048;-78
2021/12/15 16:45:53;;;;;;;9.23;6.40;;;;;;;4.99;100.00;100647.19;5091229;28;20044;-78
2021/12/15 16:48:33;;;;;;;8.45;5.03;;;;;;;4.98;100.00;100646.31;5091614;28;20051;-78
2021/12/15 16:51:04;;;;;;;8.68;5.95;;;;;;;4.92;100.00;100642.25;5090340;28;20040;-78
2021/12/15 16:53:39;;;;;;;9.20;5.47;;;;;;;4.92;100.00;100652.16;5091490;28;20036;-78
2021/12/15 16:56:08;;;;;;;7.22;5.03;;;;;;;4.93;100.00;100653.88;5089479;28;20100;-77
2021/12/15 16:58:36;;;;;;;7.72;5.32;;;;;;;4.80;100.00;100648.50;5080572;28;20067;-78
2021/12/15 17:01:06;;;;;;;7.68;4.63;;;;;;;4.83;100.00;100664.47;5089579;28;20048;-78
2021/12/15 17:03:35;;;;;;;8.40;5.45;;;;;;;4.81;100.00;100662.88;5091311;28;20097;-77
2021/12/15 17:06:03;;;;;;;7.72;5.22;;;;;;;4.84;100.00;100668.88;5090966;28;20048;-78
2021/12/15 17:08:30;;;;;;;6.88;4.78;;;;;;;4.79;100.00;100649.50;5091315;28;20044;-78
2021/12/15 17:11:02;;;;;;;7.95;5.45;;;;;;;4.78;100.00;100655.88;5094956;28;20052;-78
2021/12/15 17:13:33;;;;;;;10.40;6.15;;;;;;;4.78;100.00;100658.56;5086568;28;20048;-78
2021/12/15 17:16:06;;;;;;;7.78;4.90;;;;;;;4.78;100.00;100651.31;5095116;28;20441;-78
2021/12/15 17:18:37;;;;;;;9.43;5.30;;;;;;;4.77;100.00;100654.13;5088322;28;20055;-80
2021/12/15 17:21:24;;;;;;;9.05;5.75;;;;;;;4.84;100.00;100662.66;5094876;28;20058;-78
2021/12/15 17:23:54;;;;;;;9.18;6.38;;;;;;;4.81;100.00;100665.56;5095238;28;20044;-78
2021/12/15 17:26:25;;;;;;;9.18;6.15;;;;;;;4.81;100.00;100665.56;5094587;28;20048;-78
2021/12/15 17:28:54;;;;;;;8.65;5.90;;;;;;;4.77;100.00;100662.22;5093782;28;20040;-77
2021/12/15 17:31:23;;;;;;;9.00;6.43;;;;;;;4.76;100.00;100665.91;5083669;28;20040;-78
2021/12/15 17:33:57;;;;;;;8.30;5.90;;;;;;;4.76;100.00;100666.75;5094545;28;20439;-78
2021/12/15 17:36:29;;;;;;;7.70;5.68;;;;;;;4.82;100.00;100672.66;5091909;28;20121;-78
2021/12/15 17:39:01;;;;;;;7.90;5.70;;;;;;;4.78;100.00;100670.19;5095044;28;20063;-78
2021/12/15 17:41:31;;;;;;;9.77;6.65;;;;;;;4.70;100.00;100669.03;5093849;28;20055;-78
2021/12/15 17:44:03;;;;;;;10.95;6.78;;;;;;;4.76;100.00;100673.97;5094878;28;20056;-78
2021/12/15 17:46:33;;;;;;;8.85;6.32;;;;;;;4.75;100.00;100674.94;5092623;28;20044;-78
2021/12/15 17:49:07;;;;;;;8.73;6.93;;;;;;;4.75;100.00;100672.25;5094398;28;20079;-77
2021/12/15 17:51:57;;;;;;;11.23;7.30;;;;;;;4.71;100.00;100685.09;5094114;28;20491;-78
2021/12/15 17:54:38;;;;;;;11.48;7.30;;;;;;;4.63;100.00;100678.53;5091932;28;20139;-78
2021/12/15 17:57:08;;;;;;;10.38;7.53;;;;;;;4.71;100.00;100684.22;5094287;28;20051;-78
2021/12/15 17:59:38;;;;;;;10.68;7.53;;;;;;;4.69;100.00;100696.94;5093882;28;20113;-78
2021/12/15 18:02:06;;;;;;;14.23;7.20;;;;;;;4.73;100.00;100691.22;5092642;28;20499;-78
2021/12/15 18:04:34;;;;;;;12.57;7.35;;;;;;;4.73;100.00;100687.69;5088703;28;20056;-78
2021/12/15 18:07:01;;;;;;;12.57;7.00;;;;;;;4.72;100.00;100694.03;5091356;28;20063;-78
2021/12/15 18:09:30;;;;;;;10.32;7.30;;;;;;;4.75;100.00;100697.34;5091479;28;20495;-78
2021/12/15 18:12:01;;;;;;;10.45;6.85;;;;;;;4.70;100.00;100691.44;5093716;28;20044;-78
2021/12/15 18:14:29;;;;;;;9.15;6.60;;;;;;;4.73;100.00;100699.31;5093833;28;20048;-78
2021/12/15 18:16:56;;;;;;;9.30;6.45;;;;;;;4.72;100.00;100702.09;5083838;28;20052;-78
2021/12/15 18:19:23;;;;;;;10.20;6.93;;;;;;;4.69;100.00;100699.63;5092683;28;20040;-78
2021/12/15 18:21:53;;;;;;;10.35;7.43;;;;;;;4.70;100.00;100704.06;5092892;28;20445;-78
2021/12/15 18:24:21;;;;;;;10.23;7.03;;;;;;;4.68;100.00;100705.97;5092876;28;20399;-78
2021/12/15 18:26:51;;;;;;;9.13;6.43;;;;;;;4.67;100.00;100704.28;5092911;28;20051;-78
